sensor_id;sensor_type;location;lat;lon;timestamp;P1;durP1;ratioP1;P2;durP2;ratioP2
79526;SDS011;68974;47.754;-3.364;2023-08-08T00:00:06;8.45;;;1.50;;
79526;SDS011;68974;47.754;-3.364;2023-08-08T00:02:31;6.32;;;1.60;;
79526;SDS011;68974;47.754;-3.364;2023-08-08T00:04:57;3.95;;;1.33;;
79526;SDS011;68974;47.754;-3.364;2023-08-08T00:07:22;3.22;;;1.45;;
79526;SDS011;68974;47.754;-3.364;2023-08-08T00:09:48;3.35;;;1.40;;
79526;SDS011;68974;47.754;-3.364;2023-08-08T00:12:13;3.85;;;1.40;;
79526;SDS011;68974;47.754;-3.364;2023-08-08T00:14:39;4.53;;;1.95;;
79526;SDS011;68974;47.754;-3.364;2023-08-08T00:17:04;3.53;;;1.20;;
79526;SDS011;68974;47.754;-3.364;2023-08-08T00:19:30;4.20;;;1.38;;
79526;SDS011;68974;47.754;-3.364;2023-08-08T00:21:55;3.70;;;1.27;;
79526;SDS011;68974;47.754;-3.364;2023-08-08T00:24:21;3.03;;;1.75;;
79526;SDS011;68974;47.754;-3.364;2023-08-08T00:26:46;6.78;;;1.60;;
79526;SDS011;68974;47.754;-3.364;2023-08-08T00:29:11;3.83;;;1.33;;
79526;SDS011;68974;47.754;-3.364;2023-08-08T00:31:37;4.85;;;1.40;;
79526;SDS011;68974;47.754;-3.364;2023-08-08T00:34:02;4.22;;;1.35;;
79526;SDS011;68974;47.754;-3.364;2023-08-08T00:36:27;6.47;;;1.50;;
79526;SDS011;68974;47.754;-3.364;2023-08-08T00:38:53;4.90;;;1.30;;
79526;SDS011;68974;47.754;-3.364;2023-08-08T00:41:18;4.55;;;1.30;;
79526;SDS011;68974;47.754;-3.364;2023-08-08T00:43:44;5.13;;;1.52;;
79526;SDS011;68974;47.754;-3.364;2023-08-08T00:46:09;3.55;;;1.10;;
79526;SDS011;68974;47.754;-3.364;2023-08-08T00:48:35;5.10;;;1.33;;
79526;SDS011;68974;47.754;-3.364;2023-08-08T00:51:01;4.30;;;1.60;;
79526;SDS011;68974;47.754;-3.364;2023-08-08T00:53:27;4.13;;;1.40;;
79526;SDS011;68974;47.754;-3.364;2023-08-08T00:55:56;2.30;;;1.25;;
79526;SDS011;68974;47.754;-3.364;2023-08-08T00:58:21;2.38;;;1.42;;
79526;SDS011;68974;47.754;-3.364;2023-08-08T01:00:47;1.65;;;1.10;;
79526;SDS011;68974;47.754;-3.364;2023-08-08T01:03:12;3.28;;;1.35;;
79526;SDS011;68974;47.754;-3.364;2023-08-08T01:05:38;3.30;;;1.60;;
79526;SDS011;68974;47.754;-3.364;2023-08-08T01:08:08;3.25;;;1.55;;
79526;SDS011;68974;47.754;-3.364;2023-08-08T01:10:37;1.75;;;1.20;;
79526;SDS011;68974;47.754;-3.364;2023-08-08T01:13:05;3.05;;;1.60;;
79526;SDS011;68974;47.754;-3.364;2023-08-08T01:15:34;2.50;;;1.33;;
79526;SDS011;68974;47.754;-3.364;2023-08-08T01:18:07;4.93;;;1.92;;
79526;SDS011;68974;47.754;-3.364;2023-08-08T01:20:34;4.22;;;1.38;;
79526;SDS011;68974;47.754;-3.364;2023-08-08T01:23:09;3.58;;;1.50;;
79526;SDS011;68974;47.754;-3.364;2023-08-08T01:25:51;3.65;;;1.40;;
79526;SDS011;68974;47.754;-3.364;2023-08-08T01:28:20;6.28;;;2.30;;
79526;SDS011;68974;47.754;-3.364;2023-08-08T01:30:47;7.50;;;1.70;;
79526;SDS011;68974;47.754;-3.364;2023-08-08T01:33:12;1.88;;;1.25;;
79526;SDS011;68974;47.754;-3.364;2023-08-08T01:35:38;4.15;;;1.30;;
79526;SDS011;68974;47.754;-3.364;2023-08-08T01:38:10;2.40;;;1.25;;
79526;SDS011;68974;47.754;-3.364;2023-08-08T01:40:41;3.05;;;1.50;;
79526;SDS011;68974;47.754;-3.364;2023-08-08T01:43:08;3.35;;;1.75;;
79526;SDS011;68974;47.754;-3.364;2023-08-08T01:45:34;5.10;;;1.33;;
79526;SDS011;68974;47.754;-3.364;2023-08-08T01:48:05;2.65;;;1.40;;
79526;SDS011;68974;47.754;-3.364;2023-08-08T01:50:32;3.28;;;1.48;;
79526;SDS011;68974;47.754;-3.364;2023-08-08T01:52:57;3.40;;;1.33;;
79526;SDS011;68974;47.754;-3.364;2023-08-08T01:55:23;2.95;;;1.40;;
79526;SDS011;68974;47.754;-3.364;2023-08-08T01:57:48;5.15;;;1.77;;
79526;SDS011;68974;47.754;-3.364;2023-08-08T02:00:14;3.05;;;1.30;;
79526;SDS011;68974;47.754;-3.364;2023-08-08T02:02:39;6.05;;;1.77;;
79526;SDS011;68974;47.754;-3.364;2023-08-08T02:05:05;3.92;;;1.65;;
79526;SDS011;68974;47.754;-3.364;2023-08-08T02:07:30;7.32;;;2.20;;
79526;SDS011;68974;47.754;-3.364;2023-08-08T02:09:56;4.28;;;1.45;;
79526;SDS011;68974;47.754;-3.364;2023-08-08T02:12:21;3.33;;;1.20;;
79526;SDS011;68974;47.754;-3.364;2023-08-08T02:14:47;3.10;;;1.40;;
79526;SDS011;68974;47.754;-3.364;2023-08-08T02:17:12;6.00;;;1.40;;
79526;SDS011;68974;47.754;-3.364;2023-08-08T02:19:37;3.67;;;1.63;;
79526;SDS011;68974;47.754;-3.364;2023-08-08T02:22:03;3.35;;;1.30;;
79526;SDS011;68974;47.754;-3.364;2023-08-08T02:24:28;5.10;;;1.60;;
79526;SDS011;68974;47.754;-3.364;2023-08-08T02:26:54;4.93;;;1.55;;
79526;SDS011;68974;47.754;-3.364;2023-08-08T02:29:19;6.77;;;1.60;;
79526;SDS011;68974;47.754;-3.364;2023-08-08T02:31:44;3.95;;;1.42;;
79526;SDS011;68974;47.754;-3.364;2023-08-08T02:34:10;3.95;;;1.58;;
79526;SDS011;68974;47.754;-3.364;2023-08-08T02:36:35;2.20;;;1.38;;
79526;SDS011;68974;47.754;-3.364;2023-08-08T02:39:01;4.40;;;1.60;;
79526;SDS011;68974;47.754;-3.364;2023-08-08T02:41:26;3.53;;;1.58;;
79526;SDS011;68974;47.754;-3.364;2023-08-08T02:43:51;7.45;;;1.75;;
79526;SDS011;68974;47.754;-3.364;2023-08-08T02:46:17;4.90;;;2.05;;
79526;SDS011;68974;47.754;-3.364;2023-08-08T02:48:42;3.63;;;1.35;;
79526;SDS011;68974;47.754;-3.364;2023-08-08T02:51:08;4.45;;;1.58;;
79526;SDS011;68974;47.754;-3.364;2023-08-08T02:53:33;2.38;;;1.73;;
79526;SDS011;68974;47.754;-3.364;2023-08-08T02:55:58;3.20;;;1.90;;
79526;SDS011;68974;47.754;-3.364;2023-08-08T02:58:24;4.28;;;1.83;;
79526;SDS011;68974;47.754;-3.364;2023-08-08T03:00:49;4.60;;;1.83;;
79526;SDS011;68974;47.754;-3.364;2023-08-08T03:03:14;4.25;;;1.60;;
79526;SDS011;68974;47.754;-3.364;2023-08-08T03:05:40;4.32;;;1.92;;
79526;SDS011;68974;47.754;-3.364;2023-08-08T03:08:05;4.85;;;2.13;;
79526;SDS011;68974;47.754;-3.364;2023-08-08T03:10:31;6.07;;;2.13;;
79526;SDS011;68974;47.754;-3.364;2023-08-08T03:12:56;3.33;;;1.73;;
79526;SDS011;68974;47.754;-3.364;2023-08-08T03:15:22;9.15;;;2.13;;
79526;SDS011;68974;47.754;-3.364;2023-08-08T03:17:47;5.00;;;1.63;;
79526;SDS011;68974;47.754;-3.364;2023-08-08T03:20:12;4.57;;;1.42;;
79526;SDS011;68974;47.754;-3.364;2023-08-08T03:22:38;2.53;;;1.50;;
79526;SDS011;68974;47.754;-3.364;2023-08-08T03:25:03;4.95;;;1.80;;
79526;SDS011;68974;47.754;-3.364;2023-08-08T03:27:29;2.78;;;2.10;;
79526;SDS011;68974;47.754;-3.364;2023-08-08T03:29:55;6.15;;;2.25;;
79526;SDS011;68974;47.754;-3.364;2023-08-08T03:32:21;8.32;;;2.35;;
79526;SDS011;68974;47.754;-3.364;2023-08-08T03:34:47;2.85;;;1.60;;
79526;SDS011;68974;47.754;-3.364;2023-08-08T03:37:12;6.15;;;2.03;;
79526;SDS011;68974;47.754;-3.364;2023-08-08T03:39:38;5.15;;;2.05;;
79526;SDS011;68974;47.754;-3.364;2023-08-08T03:42:03;5.05;;;1.73;;
79526;SDS011;68974;47.754;-3.364;2023-08-08T03:44:29;4.45;;;1.52;;
79526;SDS011;68974;47.754;-3.364;2023-08-08T03:46:54;3.75;;;1.60;;
79526;SDS011;68974;47.754;-3.364;2023-08-08T03:49:20;5.85;;;2.05;;
79526;SDS011;68974;47.754;-3.364;2023-08-08T03:51:45;4.25;;;1.77;;
79526;SDS011;68974;47.754;-3.364;2023-08-08T03:54:12;3.10;;;1.80;;
79526;SDS011;68974;47.754;-3.364;2023-08-08T03:56:38;5.00;;;1.75;;
79526;SDS011;68974;47.754;-3.364;2023-08-08T03:59:03;5.43;;;1.58;;
79526;SDS011;68974;47.754;-3.364;2023-08-08T04:01:28;4.68;;;1.95;;
79526;SDS011;68974;47.754;-3.364;2023-08-08T04:03:54;7.68;;;1.85;;
79526;SDS011;68974;47.754;-3.364;2023-08-08T04:06:19;6.25;;;1.90;;
79526;SDS011;68974;47.754;-3.364;2023-08-08T04:08:44;6.75;;;1.90;;
79526;SDS011;68974;47.754;-3.364;2023-08-08T04:11:10;3.95;;;1.90;;
79526;SDS011;68974;47.754;-3.364;2023-08-08T04:13:36;6.20;;;1.77;;
79526;SDS011;68974;47.754;-3.364;2023-08-08T04:16:02;4.15;;;1.63;;
79526;SDS011;68974;47.754;-3.364;2023-08-08T04:18:27;4.70;;;1.85;;
79526;SDS011;68974;47.754;-3.364;2023-08-08T04:20:52;4.30;;;1.90;;
79526;SDS011;68974;47.754;-3.364;2023-08-08T04:23:18;3.35;;;1.50;;
79526;SDS011;68974;47.754;-3.364;2023-08-08T04:25:44;16.63;;;3.53;;
79526;SDS011;68974;47.754;-3.364;2023-08-08T04:28:09;2.60;;;1.50;;
79526;SDS011;68974;47.754;-3.364;2023-08-08T04:30:35;4.75;;;1.83;;
79526;SDS011;68974;47.754;-3.364;2023-08-08T04:33:00;4.88;;;1.90;;
79526;SDS011;68974;47.754;-3.364;2023-08-08T04:35:26;4.20;;;1.70;;
79526;SDS011;68974;47.754;-3.364;2023-08-08T04:37:51;5.53;;;2.00;;
79526;SDS011;68974;47.754;-3.364;2023-08-08T04:40:16;4.63;;;2.50;;
79526;SDS011;68974;47.754;-3.364;2023-08-08T04:42:42;5.05;;;2.50;;
79526;SDS011;68974;47.754;-3.364;2023-08-08T04:45:07;6.20;;;2.42;;
79526;SDS011;68974;47.754;-3.364;2023-08-08T04:47:33;4.72;;;2.70;;
79526;SDS011;68974;47.754;-3.364;2023-08-08T04:49:58;5.82;;;2.53;;
79526;SDS011;68974;47.754;-3.364;2023-08-08T04:52:24;2.70;;;1.73;;
79526;SDS011;68974;47.754;-3.364;2023-08-08T04:54:49;4.88;;;1.92;;
79526;SDS011;68974;47.754;-3.364;2023-08-08T04:57:15;6.10;;;1.80;;
79526;SDS011;68974;47.754;-3.364;2023-08-08T04:59:40;4.70;;;1.90;;
79526;SDS011;68974;47.754;-3.364;2023-08-08T05:02:05;4.38;;;2.20;;
79526;SDS011;68974;47.754;-3.364;2023-08-08T05:04:31;4.40;;;2.28;;
79526;SDS011;68974;47.754;-3.364;2023-08-08T05:06:56;14.65;;;2.30;;
79526;SDS011;68974;47.754;-3.364;2023-08-08T05:09:22;6.90;;;2.08;;
79526;SDS011;68974;47.754;-3.364;2023-08-08T05:11:51;6.75;;;2.30;;
79526;SDS011;68974;47.754;-3.364;2023-08-08T05:14:17;3.50;;;2.10;;
79526;SDS011;68974;47.754;-3.364;2023-08-08T05:16:43;4.63;;;2.17;;
79526;SDS011;68974;47.754;-3.364;2023-08-08T05:19:08;6.63;;;2.22;;
79526;SDS011;68974;47.754;-3.364;2023-08-08T05:21:34;4.40;;;1.85;;
79526;SDS011;68974;47.754;-3.364;2023-08-08T05:24:00;4.38;;;2.30;;
79526;SDS011;68974;47.754;-3.364;2023-08-08T05:26:25;6.38;;;2.70;;
79526;SDS011;68974;47.754;-3.364;2023-08-08T05:28:50;4.90;;;2.28;;
79526;SDS011;68974;47.754;-3.364;2023-08-08T05:31:16;7.43;;;2.80;;
79526;SDS011;68974;47.754;-3.364;2023-08-08T05:33:41;4.88;;;2.67;;
79526;SDS011;68974;47.754;-3.364;2023-08-08T05:36:07;4.45;;;2.40;;
79526;SDS011;68974;47.754;-3.364;2023-08-08T05:38:32;5.00;;;2.20;;
79526;SDS011;68974;47.754;-3.364;2023-08-08T05:40:57;8.80;;;2.40;;
79526;SDS011;68974;47.754;-3.364;2023-08-08T05:43:23;5.13;;;2.28;;
79526;SDS011;68974;47.754;-3.364;2023-08-08T05:45:48;6.53;;;2.13;;
79526;SDS011;68974;47.754;-3.364;2023-08-08T05:48:14;5.43;;;2.40;;
79526;SDS011;68974;47.754;-3.364;2023-08-08T05:50:39;6.63;;;2.72;;
79526;SDS011;68974;47.754;-3.364;2023-08-08T05:53:05;9.15;;;2.95;;
79526;SDS011;68974;47.754;-3.364;2023-08-08T05:55:31;5.57;;;2.88;;
79526;SDS011;68974;47.754;-3.364;2023-08-08T05:57:57;6.03;;;2.47;;
79526;SDS011;68974;47.754;-3.364;2023-08-08T06:00:23;5.93;;;2.25;;
79526;SDS011;68974;47.754;-3.364;2023-08-08T06:02:48;8.10;;;3.08;;
79526;SDS011;68974;47.754;-3.364;2023-08-08T06:05:14;9.07;;;2.60;;
79526;SDS011;68974;47.754;-3.364;2023-08-08T06:07:41;6.97;;;2.45;;
79526;SDS011;68974;47.754;-3.364;2023-08-08T06:10:06;5.57;;;2.63;;
79526;SDS011;68974;47.754;-3.364;2023-08-08T06:12:33;16.75;;;9.07;;
79526;SDS011;68974;47.754;-3.364;2023-08-08T06:14:58;11.93;;;7.03;;
79526;SDS011;68974;47.754;-3.364;2023-08-08T06:17:24;5.35;;;2.63;;
79526;SDS011;68974;47.754;-3.364;2023-08-08T06:19:49;7.05;;;2.90;;
79526;SDS011;68974;47.754;-3.364;2023-08-08T06:22:15;5.20;;;2.20;;
79526;SDS011;68974;47.754;-3.364;2023-08-08T06:24:41;3.47;;;2.08;;
79526;SDS011;68974;47.754;-3.364;2023-08-08T06:27:06;5.03;;;2.50;;
79526;SDS011;68974;47.754;-3.364;2023-08-08T06:29:32;5.57;;;2.33;;
79526;SDS011;68974;47.754;-3.364;2023-08-08T06:31:57;5.28;;;2.13;;
79526;SDS011;68974;47.754;-3.364;2023-08-08T06:34:23;6.15;;;1.80;;
79526;SDS011;68974;47.754;-3.364;2023-08-08T06:36:48;4.45;;;2.15;;
79526;SDS011;68974;47.754;-3.364;2023-08-08T06:39:14;5.88;;;1.90;;
79526;SDS011;68974;47.754;-3.364;2023-08-08T06:41:39;6.50;;;1.98;;
79526;SDS011;68974;47.754;-3.364;2023-08-08T06:44:06;4.63;;;1.58;;
79526;SDS011;68974;47.754;-3.364;2023-08-08T06:46:32;3.55;;;1.70;;
79526;SDS011;68974;47.754;-3.364;2023-08-08T06:48:58;6.10;;;1.85;;
79526;SDS011;68974;47.754;-3.364;2023-08-08T06:51:24;4.53;;;1.40;;
79526;SDS011;68974;47.754;-3.364;2023-08-08T06:53:50;4.30;;;1.30;;
79526;SDS011;68974;47.754;-3.364;2023-08-08T06:56:16;6.35;;;1.85;;
79526;SDS011;68974;47.754;-3.364;2023-08-08T06:58:42;4.55;;;1.95;;
79526;SDS011;68974;47.754;-3.364;2023-08-08T07:01:08;3.17;;;1.58;;
79526;SDS011;68974;47.754;-3.364;2023-08-08T07:03:34;2.28;;;1.40;;
79526;SDS011;68974;47.754;-3.364;2023-08-08T07:06:00;3.38;;;1.13;;
79526;SDS011;68974;47.754;-3.364;2023-08-08T07:08:25;3.30;;;1.27;;
79526;SDS011;68974;47.754;-3.364;2023-08-08T07:10:51;6.18;;;1.65;;
79526;SDS011;68974;47.754;-3.364;2023-08-08T07:13:16;3.22;;;1.52;;
79526;SDS011;68974;47.754;-3.364;2023-08-08T07:15:42;2.30;;;1.23;;
79526;SDS011;68974;47.754;-3.364;2023-08-08T07:18:07;3.90;;;1.25;;
79526;SDS011;68974;47.754;-3.364;2023-08-08T07:20:33;3.03;;;1.35;;
79526;SDS011;68974;47.754;-3.364;2023-08-08T07:22:58;2.30;;;1.38;;
79526;SDS011;68974;47.754;-3.364;2023-08-08T07:25:25;2.67;;;1.02;;
79526;SDS011;68974;47.754;-3.364;2023-08-08T07:27:50;3.72;;;1.40;;
79526;SDS011;68974;47.754;-3.364;2023-08-08T07:30:16;8.57;;;1.88;;
79526;SDS011;68974;47.754;-3.364;2023-08-08T07:32:41;3.63;;;1.05;;
79526;SDS011;68974;47.754;-3.364;2023-08-08T07:35:07;6.13;;;1.33;;
79526;SDS011;68974;47.754;-3.364;2023-08-08T07:37:33;3.88;;;1.30;;
79526;SDS011;68974;47.754;-3.364;2023-08-08T07:39:59;3.97;;;1.05;;
79526;SDS011;68974;47.754;-3.364;2023-08-08T07:42:25;5.57;;;1.40;;
79526;SDS011;68974;47.754;-3.364;2023-08-08T07:44:51;2.90;;;1.17;;
79526;SDS011;68974;47.754;-3.364;2023-08-08T07:47:16;3.45;;;1.00;;
79526;SDS011;68974;47.754;-3.364;2023-08-08T07:49:41;3.03;;;1.15;;
79526;SDS011;68974;47.754;-3.364;2023-08-08T07:52:07;4.40;;;1.20;;
79526;SDS011;68974;47.754;-3.364;2023-08-08T07:54:33;4.75;;;1.60;;
79526;SDS011;68974;47.754;-3.364;2023-08-08T07:56:59;6.00;;;1.92;;
79526;SDS011;68974;47.754;-3.364;2023-08-08T07:59:24;5.30;;;1.48;;
79526;SDS011;68974;47.754;-3.364;2023-08-08T08:01:50;6.55;;;1.67;;
79526;SDS011;68974;47.754;-3.364;2023-08-08T08:04:15;3.28;;;1.27;;
79526;SDS011;68974;47.754;-3.364;2023-08-08T08:06:41;4.10;;;0.98;;
79526;SDS011;68974;47.754;-3.364;2023-08-08T08:09:06;4.63;;;1.40;;
79526;SDS011;68974;47.754;-3.364;2023-08-08T08:11:33;2.60;;;1.15;;
79526;SDS011;68974;47.754;-3.364;2023-08-08T08:13:58;4.18;;;1.35;;
79526;SDS011;68974;47.754;-3.364;2023-08-08T08:16:24;4.93;;;1.48;;
79526;SDS011;68974;47.754;-3.364;2023-08-08T08:18:49;4.70;;;1.30;;
79526;SDS011;68974;47.754;-3.364;2023-08-08T08:21:21;2.67;;;1.27;;
79526;SDS011;68974;47.754;-3.364;2023-08-08T08:23:55;5.30;;;1.27;;
79526;SDS011;68974;47.754;-3.364;2023-08-08T08:26:21;2.90;;;1.00;;
79526;SDS011;68974;47.754;-3.364;2023-08-08T08:28:47;6.05;;;1.52;;
79526;SDS011;68974;47.754;-3.364;2023-08-08T08:31:12;9.63;;;1.45;;
79526;SDS011;68974;47.754;-3.364;2023-08-08T08:33:38;3.55;;;1.85;;
79526;SDS011;68974;47.754;-3.364;2023-08-08T08:36:03;8.15;;;2.58;;
79526;SDS011;68974;47.754;-3.364;2023-08-08T08:38:29;5.03;;;1.30;;
79526;SDS011;68974;47.754;-3.364;2023-08-08T08:40:56;4.75;;;1.17;;
79526;SDS011;68974;47.754;-3.364;2023-08-08T08:45:49;4.05;;;1.60;;
79526;SDS011;68974;47.754;-3.364;2023-08-08T08:48:17;2.03;;;1.20;;
79526;SDS011;68974;47.754;-3.364;2023-08-08T08:50:44;5.82;;;1.30;;
79526;SDS011;68974;47.754;-3.364;2023-08-08T08:53:12;2.70;;;1.00;;
79526;SDS011;68974;47.754;-3.364;2023-08-08T08:55:38;2.72;;;1.17;;
79526;SDS011;68974;47.754;-3.364;2023-08-08T08:58:05;5.88;;;1.15;;
79526;SDS011;68974;47.754;-3.364;2023-08-08T09:00:31;3.50;;;1.10;;
79526;SDS011;68974;47.754;-3.364;2023-08-08T09:02:56;2.72;;;1.40;;
79526;SDS011;68974;47.754;-3.364;2023-08-08T09:05:23;3.38;;;1.20;;
79526;SDS011;68974;47.754;-3.364;2023-08-08T09:07:51;2.92;;;1.15;;
79526;SDS011;68974;47.754;-3.364;2023-08-08T09:10:17;3.65;;;1.40;;
79526;SDS011;68974;47.754;-3.364;2023-08-08T09:12:46;3.70;;;1.23;;
79526;SDS011;68974;47.754;-3.364;2023-08-08T09:15:18;4.07;;;1.25;;
79526;SDS011;68974;47.754;-3.364;2023-08-08T09:17:44;6.20;;;1.52;;
79526;SDS011;68974;47.754;-3.364;2023-08-08T09:20:13;5.18;;;1.38;;
79526;SDS011;68974;47.754;-3.364;2023-08-08T09:22:39;4.65;;;1.30;;
79526;SDS011;68974;47.754;-3.364;2023-08-08T09:25:05;3.92;;;1.30;;
79526;SDS011;68974;47.754;-3.364;2023-08-08T09:27:33;2.50;;;1.10;;
79526;SDS011;68974;47.754;-3.364;2023-08-08T09:29:59;4.82;;;1.65;;
79526;SDS011;68974;47.754;-3.364;2023-08-08T09:32:28;3.47;;;1.38;;
79526;SDS011;68974;47.754;-3.364;2023-08-08T09:34:56;6.28;;;2.00;;
79526;SDS011;68974;47.754;-3.364;2023-08-08T09:37:22;2.97;;;1.58;;
79526;SDS011;68974;47.754;-3.364;2023-08-08T09:39:55;3.78;;;1.42;;
79526;SDS011;68974;47.754;-3.364;2023-08-08T09:42:25;3.85;;;1.95;;
79526;SDS011;68974;47.754;-3.364;2023-08-08T09:44:52;4.18;;;1.77;;
79526;SDS011;68974;47.754;-3.364;2023-08-08T09:47:18;4.93;;;1.38;;
79526;SDS011;68974;47.754;-3.364;2023-08-08T09:49:43;6.20;;;1.73;;
79526;SDS011;68974;47.754;-3.364;2023-08-08T09:52:09;4.18;;;1.67;;
79526;SDS011;68974;47.754;-3.364;2023-08-08T09:54:36;4.30;;;1.20;;
79526;SDS011;68974;47.754;-3.364;2023-08-08T09:57:03;6.85;;;3.95;;
79526;SDS011;68974;47.754;-3.364;2023-08-08T09:59:30;5.93;;;3.95;;
79526;SDS011;68974;47.754;-3.364;2023-08-08T10:01:56;2.67;;;1.13;;
79526;SDS011;68974;47.754;-3.364;2023-08-08T10:04:22;3.17;;;1.15;;
79526;SDS011;68974;47.754;-3.364;2023-08-08T10:06:49;4.47;;;1.42;;
79526;SDS011;68974;47.754;-3.364;2023-08-08T10:09:14;5.35;;;1.30;;
79526;SDS011;68974;47.754;-3.364;2023-08-08T10:11:40;3.67;;;1.60;;
79526;SDS011;68974;47.754;-3.364;2023-08-08T10:14:07;4.72;;;1.45;;
79526;SDS011;68974;47.754;-3.364;2023-08-08T10:16:36;4.38;;;1.65;;
79526;SDS011;68974;47.754;-3.364;2023-08-08T10:19:03;4.07;;;1.55;;
79526;SDS011;68974;47.754;-3.364;2023-08-08T10:21:34;5.05;;;1.33;;
79526;SDS011;68974;47.754;-3.364;2023-08-08T10:24:09;6.40;;;1.38;;
79526;SDS011;68974;47.754;-3.364;2023-08-08T10:26:50;2.00;;;1.13;;
79526;SDS011;68974;47.754;-3.364;2023-08-08T10:29:23;3.47;;;2.00;;
79526;SDS011;68974;47.754;-3.364;2023-08-08T10:31:54;8.07;;;2.35;;
79526;SDS011;68974;47.754;-3.364;2023-08-08T10:34:27;3.60;;;1.20;;
79526;SDS011;68974;47.754;-3.364;2023-08-08T10:37:12;4.50;;;1.30;;
79526;SDS011;68974;47.754;-3.364;2023-08-08T10:39:52;3.83;;;1.33;;
79526;SDS011;68974;47.754;-3.364;2023-08-08T10:42:19;4.70;;;1.23;;
79526;SDS011;68974;47.754;-3.364;2023-08-08T10:44:50;4.32;;;1.13;;
79526;SDS011;68974;47.754;-3.364;2023-08-08T10:55:20;2.38;;;1.10;;
79526;SDS011;68974;47.754;-3.364;2023-08-08T10:57:57;6.82;;;1.50;;
79526;SDS011;68974;47.754;-3.364;2023-08-08T11:00:28;4.38;;;1.20;;
79526;SDS011;68974;47.754;-3.364;2023-08-08T11:02:56;4.18;;;1.45;;
79526;SDS011;68974;47.754;-3.364;2023-08-08T11:05:24;3.85;;;1.20;;
79526;SDS011;68974;47.754;-3.364;2023-08-08T11:07:51;5.35;;;1.40;;
79526;SDS011;68974;47.754;-3.364;2023-08-08T11:10:17;4.90;;;1.60;;
79526;SDS011;68974;47.754;-3.364;2023-08-08T11:12:51;2.72;;;1.38;;
79526;SDS011;68974;47.754;-3.364;2023-08-08T11:15:18;5.88;;;1.42;;
79526;SDS011;68974;47.754;-3.364;2023-08-08T11:17:44;3.50;;;1.15;;
79526;SDS011;68974;47.754;-3.364;2023-08-08T11:20:10;3.03;;;1.20;;
79526;SDS011;68974;47.754;-3.364;2023-08-08T11:22:36;3.72;;;1.60;;
79526;SDS011;68974;47.754;-3.364;2023-08-08T11:25:01;7.35;;;4.13;;
79526;SDS011;68974;47.754;-3.364;2023-08-08T11:27:28;6.60;;;2.78;;
79526;SDS011;68974;47.754;-3.364;2023-08-08T11:29:56;3.50;;;1.40;;
79526;SDS011;68974;47.754;-3.364;2023-08-08T11:32:23;3.53;;;1.27;;
79526;SDS011;68974;47.754;-3.364;2023-08-08T11:34:52;3.25;;;1.10;;
79526;SDS011;68974;47.754;-3.364;2023-08-08T11:37:17;5.95;;;1.27;;
79526;SDS011;68974;47.754;-3.364;2023-08-08T11:39:43;5.25;;;1.30;;
79526;SDS011;68974;47.754;-3.364;2023-08-08T11:42:10;4.03;;;1.20;;
79526;SDS011;68974;47.754;-3.364;2023-08-08T11:44:35;5.95;;;1.17;;
79526;SDS011;68974;47.754;-3.364;2023-08-08T11:47:02;4.47;;;1.40;;
79526;SDS011;68974;47.754;-3.364;2023-08-08T11:49:27;2.40;;;1.00;;
79526;SDS011;68974;47.754;-3.364;2023-08-08T11:51:56;2.40;;;1.08;;
79526;SDS011;68974;47.754;-3.364;2023-08-08T11:54:21;1.40;;;0.88;;
79526;SDS011;68974;47.754;-3.364;2023-08-08T11:56:46;4.22;;;1.10;;
79526;SDS011;68974;47.754;-3.364;2023-08-08T11:59:12;7.13;;;2.17;;
79526;SDS011;68974;47.754;-3.364;2023-08-08T12:01:37;5.38;;;1.33;;
79526;SDS011;68974;47.754;-3.364;2023-08-08T12:04:07;5.13;;;1.35;;
79526;SDS011;68974;47.754;-3.364;2023-08-08T12:06:36;4.40;;;1.00;;
79526;SDS011;68974;47.754;-3.364;2023-08-08T12:09:04;3.10;;;1.00;;
79526;SDS011;68974;47.754;-3.364;2023-08-08T12:11:33;4.47;;;1.10;;
79526;SDS011;68974;47.754;-3.364;2023-08-08T12:13:59;3.97;;;1.20;;
79526;SDS011;68974;47.754;-3.364;2023-08-08T12:16:27;3.85;;;1.17;;
79526;SDS011;68974;47.754;-3.364;2023-08-08T12:18:57;3.72;;;1.25;;
79526;SDS011;68974;47.754;-3.364;2023-08-08T12:21:23;5.60;;;1.30;;
79526;SDS011;68974;47.754;-3.364;2023-08-08T12:23:48;3.90;;;1.45;;
79526;SDS011;68974;47.754;-3.364;2023-08-08T12:26:13;3.15;;;1.42;;
79526;SDS011;68974;47.754;-3.364;2023-08-08T12:28:39;2.60;;;1.10;;
79526;SDS011;68974;47.754;-3.364;2023-08-08T12:31:04;4.80;;;1.00;;
79526;SDS011;68974;47.754;-3.364;2023-08-08T12:33:30;6.18;;;1.10;;
79526;SDS011;68974;47.754;-3.364;2023-08-08T12:35:55;1.75;;;1.00;;
79526;SDS011;68974;47.754;-3.364;2023-08-08T12:38:21;4.25;;;1.10;;
79526;SDS011;68974;47.754;-3.364;2023-08-08T12:40:46;5.75;;;1.20;;
79526;SDS011;68974;47.754;-3.364;2023-08-08T12:43:12;3.78;;;1.60;;
79526;SDS011;68974;47.754;-3.364;2023-08-08T12:45:39;5.05;;;1.45;;
79526;SDS011;68974;47.754;-3.364;2023-08-08T12:48:05;2.80;;;0.90;;
79526;SDS011;68974;47.754;-3.364;2023-08-08T12:50:31;4.22;;;1.13;;
79526;SDS011;68974;47.754;-3.364;2023-08-08T12:52:56;2.95;;;1.08;;
79526;SDS011;68974;47.754;-3.364;2023-08-08T12:55:22;8.52;;;1.77;;
79526;SDS011;68974;47.754;-3.364;2023-08-08T12:57:47;6.43;;;1.35;;
79526;SDS011;68974;47.754;-3.364;2023-08-08T13:00:13;5.13;;;1.55;;
79526;SDS011;68974;47.754;-3.364;2023-08-08T13:02:39;4.75;;;1.48;;
79526;SDS011;68974;47.754;-3.364;2023-08-08T13:05:04;4.40;;;1.20;;
79526;SDS011;68974;47.754;-3.364;2023-08-08T13:07:32;3.72;;;1.05;;
79526;SDS011;68974;47.754;-3.364;2023-08-08T13:09:57;3.42;;;1.40;;
79526;SDS011;68974;47.754;-3.364;2023-08-08T13:12:23;4.13;;;1.42;;
79526;SDS011;68974;47.754;-3.364;2023-08-08T13:14:48;4.38;;;1.10;;
79526;SDS011;68974;47.754;-3.364;2023-08-08T13:17:14;2.65;;;0.98;;
79526;SDS011;68974;47.754;-3.364;2023-08-08T13:19:40;2.80;;;1.10;;
79526;SDS011;68974;47.754;-3.364;2023-08-08T13:22:06;3.15;;;1.35;;
79526;SDS011;68974;47.754;-3.364;2023-08-08T13:24:31;3.67;;;1.02;;
79526;SDS011;68974;47.754;-3.364;2023-08-08T13:26:57;3.50;;;1.40;;
79526;SDS011;68974;47.754;-3.364;2023-08-08T13:29:22;1.85;;;0.90;;
79526;SDS011;68974;47.754;-3.364;2023-08-08T13:31:48;4.70;;;1.33;;
79526;SDS011;68974;47.754;-3.364;2023-08-08T13:34:13;3.45;;;1.55;;
79526;SDS011;68974;47.754;-3.364;2023-08-08T13:36:39;4.68;;;1.48;;
79526;SDS011;68974;47.754;-3.364;2023-08-08T13:39:04;3.33;;;0.82;;
79526;SDS011;68974;47.754;-3.364;2023-08-08T13:41:30;3.75;;;1.10;;
79526;SDS011;68974;47.754;-3.364;2023-08-08T13:43:55;2.67;;;1.00;;
79526;SDS011;68974;47.754;-3.364;2023-08-08T13:46:21;3.63;;;0.93;;
79526;SDS011;68974;47.754;-3.364;2023-08-08T13:48:47;3.65;;;1.10;;
79526;SDS011;68974;47.754;-3.364;2023-08-08T13:51:13;3.17;;;1.10;;
79526;SDS011;68974;47.754;-3.364;2023-08-08T13:53:39;3.20;;;1.08;;
79526;SDS011;68974;47.754;-3.364;2023-08-08T13:56:04;2.88;;;1.70;;
79526;SDS011;68974;47.754;-3.364;2023-08-08T13:58:30;4.28;;;2.33;;
79526;SDS011;68974;47.754;-3.364;2023-08-08T14:00:55;4.50;;;1.27;;
79526;SDS011;68974;47.754;-3.364;2023-08-08T14:03:24;3.15;;;1.23;;
79526;SDS011;68974;47.754;-3.364;2023-08-08T14:05:53;7.30;;;1.20;;
79526;SDS011;68974;47.754;-3.364;2023-08-08T14:08:19;4.60;;;1.50;;
79526;SDS011;68974;47.754;-3.364;2023-08-08T14:10:45;4.53;;;0.90;;
79526;SDS011;68974;47.754;-3.364;2023-08-08T14:13:11;3.33;;;1.33;;
79526;SDS011;68974;47.754;-3.364;2023-08-08T14:15:36;3.10;;;1.13;;
79526;SDS011;68974;47.754;-3.364;2023-08-08T14:18:02;4.38;;;1.20;;
79526;SDS011;68974;47.754;-3.364;2023-08-08T14:20:28;2.47;;;1.23;;
79526;SDS011;68974;47.754;-3.364;2023-08-08T14:22:53;3.88;;;1.00;;
79526;SDS011;68974;47.754;-3.364;2023-08-08T14:25:19;4.22;;;1.13;;
79526;SDS011;68974;47.754;-3.364;2023-08-08T14:27:44;2.83;;;1.08;;
79526;SDS011;68974;47.754;-3.364;2023-08-08T14:30:10;3.92;;;0.95;;
79526;SDS011;68974;47.754;-3.364;2023-08-08T14:32:35;2.83;;;1.10;;
79526;SDS011;68974;47.754;-3.364;2023-08-08T14:35:02;1.90;;;1.00;;
79526;SDS011;68974;47.754;-3.364;2023-08-08T14:37:29;3.33;;;1.10;;